createdAt,value
2018-01-14T00:00:59.576Z,99.99
2018-01-14T00:01:54.341Z,99.99
2018-01-14T00:02:54.817Z,99.99
2018-01-14T00:03:55.334Z,99.99
2018-01-14T00:04:55.451Z,99.99
2018-01-14T00:05:55.791Z,99.99
2018-01-14T00:06:55.804Z,99.99
2018-01-14T00:07:55.550Z,99.99
2018-01-14T00:08:56.004Z,99.99
2018-01-14T00:09:56.075Z,99.99
2018-01-14T00:10:56.226Z,99.99
2018-01-14T00:11:56.323Z,99.99
2018-01-14T00:12:56.698Z,99.99
2018-01-14T00:13:56.992Z,99.99
2018-01-14T00:14:57.689Z,99.99
2018-01-14T00:15:57.748Z,99.99
2018-01-14T00:16:57.637Z,99.99
2018-01-14T00:17:57.661Z,99.99
2018-01-14T00:18:58.341Z,99.99
2018-01-14T00:19:58.380Z,99.99
2018-01-14T00:20:57.984Z,99.99
2018-01-14T00:21:58.280Z,99.99
2018-01-14T00:22:58.497Z,99.99
2018-01-14T00:23:58.344Z,99.99
2018-01-14T00:24:58.812Z,99.99
2018-01-14T00:25:58.369Z,99.99
2018-01-14T00:26:58.827Z,99.99
2018-01-14T00:27:59.200Z,99.99
2018-01-14T00:28:59.223Z,99.99
2018-01-14T00:29:59.636Z,99.99
2018-01-14T00:30:59.726Z,99.99
2018-01-14T00:31:59.630Z,99.99
2018-01-14T00:32:59.644Z,99.99
2018-01-14T00:33:59.583Z,99.99
2018-01-14T00:34:59.527Z,99.99
2018-01-14T00:35:59.683Z,99.99
2018-01-14T00:36:59.752Z,99.99
2018-01-14T00:37:59.789Z,99.99
2018-01-14T00:38:59.775Z,99.99
2018-01-14T00:39:59.800Z,99.99
2018-01-14T00:40:59.572Z,99.99
2018-01-14T00:41:59.839Z,99.99
2018-01-14T00:43:00.005Z,99.99
2018-01-14T00:44:00.342Z,99.99
2018-01-14T00:45:00.036Z,99.99
2018-01-14T00:46:00.099Z,99.99
2018-01-14T00:47:00.653Z,99.99
2018-01-14T00:48:01.601Z,99.99
2018-01-14T00:49:00.863Z,99.99
2018-01-14T00:50:01.589Z,99.99
2018-01-14T00:51:02.139Z,99.99
2018-01-14T00:52:02.443Z,99.99
2018-01-14T00:53:02.660Z,99.99
2018-01-14T00:54:01.818Z,99.99
2018-01-14T00:55:02.383Z,99.99
2018-01-14T00:56:02.872Z,99.99
2018-01-14T00:57:02.406Z,99.99
2018-01-14T00:58:02.419Z,99.99
2018-01-14T00:59:02.459Z,99.99
2018-01-14T01:01:03.533Z,99.99
2018-01-14T01:02:02.504Z,99.99
2018-01-14T01:03:03.423Z,99.99
2018-01-14T01:04:03.387Z,99.99
2018-01-14T01:05:03.430Z,99.99
2018-01-14T01:06:03.022Z,99.99
2018-01-14T01:07:03.572Z,99.99
2018-01-14T01:08:02.935Z,99.99
2018-01-14T01:09:03.502Z,99.99
2018-01-14T01:10:03.506Z,99.99
2018-01-14T01:11:03.419Z,99.99
2018-01-14T01:12:03.355Z,99.99
2018-01-14T01:13:03.727Z,99.99
2018-01-14T01:14:02.592Z,99.99
2018-01-14T01:15:02.581Z,99.99
2018-01-14T01:16:02.796Z,99.99
2018-01-14T01:17:02.653Z,99.99
2018-01-14T01:18:03.041Z,99.99
2018-01-14T01:19:03.749Z,99.99
2018-01-14T01:20:02.931Z,99.99
2018-01-14T01:21:03.706Z,99.99
2018-01-14T01:22:03.283Z,99.99
2018-01-14T01:23:03.318Z,99.99
2018-01-14T01:24:03.087Z,99.99
2018-01-14T01:25:03.418Z,99.99
2018-01-14T01:26:03.553Z,99.99
2018-01-14T01:27:02.735Z,99.99
2018-01-14T01:28:03.877Z,99.99
2018-01-14T01:29:03.316Z,99.99
2018-01-14T01:30:03.420Z,99.99
2018-01-14T01:31:03.116Z,99.99
2018-01-14T01:32:03.382Z,99.99
2018-01-14T01:33:03.652Z,99.99
2018-01-14T01:34:04.710Z,99.99
2018-01-14T01:35:05.318Z,99.99
2018-01-14T01:36:05.342Z,99.99
2018-01-14T01:37:04.617Z,99.99
2018-01-14T01:38:04.622Z,99.99
2018-01-14T01:39:05.435Z,99.99
2018-01-14T01:40:04.778Z,99.99
2018-01-14T01:41:04.761Z,99.99
2018-01-14T01:42:04.514Z,99.99
2018-01-14T01:43:04.480Z,99.99
2018-01-14T01:44:04.828Z,99.99
2018-01-14T01:45:04.560Z,99.99
2018-01-14T01:46:05.108Z,99.99
2018-01-14T01:47:05.454Z,99.99
2018-01-14T01:48:04.768Z,99.99
2018-01-14T01:49:04.552Z,99.99
2018-01-14T01:50:05.135Z,99.99
2018-01-14T01:51:04.939Z,99.99
2018-01-14T01:52:04.882Z,99.99
2018-01-14T01:53:04.799Z,99.99
2018-01-14T01:54:05.416Z,99.99
2018-01-14T01:55:05.618Z,99.99
2018-01-14T01:56:05.340Z,99.99
2018-01-14T01:57:05.355Z,99.99
2018-01-14T01:58:05.331Z,99.99
2018-01-14T01:59:05.344Z,99.99
2018-01-14T02:00:34.799Z,99.99
2018-01-14T02:01:34.776Z,99.99
2018-01-14T02:02:20.228Z,99.99
2018-01-14T02:03:21.065Z,99.99
2018-01-14T02:04:20.585Z,99.99
2018-01-14T02:05:20.217Z,99.99
2018-01-14T02:06:21.582Z,99.99
2018-01-14T02:07:20.910Z,99.99
2018-01-14T02:08:21.216Z,99.99
2018-01-14T02:09:21.222Z,99.99
2018-01-14T02:10:20.471Z,99.99
2018-01-14T02:11:20.539Z,99.99
2018-01-14T02:12:20.495Z,99.99
2018-01-14T02:13:20.456Z,99.99
2018-01-14T02:14:20.563Z,99.99
2018-01-14T02:15:21.780Z,99.99
2018-01-14T02:16:21.137Z,99.99
2018-01-14T02:17:21.590Z,99.99
2018-01-14T02:18:21.325Z,99.99
2018-01-14T02:19:21.444Z,99.99
2018-01-14T02:20:21.385Z,99.99
2018-01-14T02:21:21.231Z,99.99
2018-01-14T02:22:21.754Z,99.99
2018-01-14T02:23:21.072Z,99.99
2018-01-14T02:24:21.344Z,99.99
2018-01-14T02:25:21.709Z,99.99
2018-01-14T02:26:22.396Z,99.99
2018-01-14T02:27:22.191Z,99.99
2018-01-14T02:28:21.842Z,99.99
2018-01-14T02:29:21.765Z,99.99
2018-01-14T02:30:22.122Z,99.99
2018-01-14T02:31:22.008Z,99.99
2018-01-14T02:32:22.003Z,99.99
2018-01-14T02:33:21.865Z,99.99
2018-01-14T02:34:22.031Z,99.99
2018-01-14T02:35:22.047Z,99.99
2018-01-14T02:36:22.118Z,99.99
2018-01-14T02:37:21.941Z,99.99
2018-01-14T02:38:22.216Z,99.99
2018-01-14T02:39:22.487Z,99.99
2018-01-14T02:40:21.849Z,99.99
2018-01-14T02:41:22.290Z,99.99
2018-01-14T02:42:22.803Z,99.99
2018-01-14T02:43:23.121Z,99.99
2018-01-14T02:44:22.479Z,99.99
2018-01-14T02:45:24.600Z,99.99
2018-01-14T02:46:24.635Z,99.99
2018-01-14T02:47:23.676Z,99.99
2018-01-14T02:48:23.440Z,99.99
2018-01-14T02:49:23.545Z,99.99
2018-01-14T02:50:23.833Z,99.99
2018-01-14T02:51:23.919Z,99.99
2018-01-14T02:52:24.279Z,99.99
2018-01-14T02:53:24.504Z,99.99
2018-01-14T02:54:24.029Z,99.99
2018-01-14T02:55:23.988Z,99.99
2018-01-14T02:56:24.649Z,99.99
2018-01-14T02:57:24.510Z,99.99
2018-01-14T02:58:24.882Z,99.99
2018-01-14T02:59:24.602Z,99.99
2018-01-14T03:00:24.765Z,99.99
2018-01-14T03:01:24.634Z,99.99
2018-01-14T03:02:25.348Z,99.99
2018-01-14T03:03:25.116Z,99.99
2018-01-14T03:04:25.308Z,99.99
2018-01-14T03:05:25.483Z,99.99
2018-01-14T03:06:25.612Z,99.99
2018-01-14T03:07:25.264Z,99.99
2018-01-14T03:08:25.296Z,99.99
2018-01-14T03:09:25.746Z,99.99
2018-01-14T03:10:25.602Z,99.99
2018-01-14T03:11:25.861Z,99.99
2018-01-14T03:12:25.547Z,99.99
2018-01-14T03:13:26.849Z,99.99
2018-01-14T03:14:26.214Z,99.99
2018-01-14T03:15:26.862Z,99.99
2018-01-14T03:16:27.006Z,99.99
2018-01-14T03:17:26.994Z,99.99
2018-01-14T03:18:26.794Z,99.99
2018-01-14T03:19:27.185Z,99.99
2018-01-14T03:20:27.237Z,99.99
2018-01-14T03:21:27.702Z,99.99
2018-01-14T03:22:27.708Z,99.99
2018-01-14T03:23:28.197Z,99.99
2018-01-14T03:24:27.737Z,99.99
2018-01-14T03:25:28.481Z,99.99
2018-01-14T03:26:28.219Z,99.99
2018-01-14T03:27:28.630Z,99.99
2018-01-14T03:28:28.730Z,99.99
2018-01-14T03:29:28.408Z,99.99
2018-01-14T03:30:29.084Z,99.99
2018-01-14T03:31:28.811Z,99.99
2018-01-14T03:32:28.812Z,99.99
2018-01-14T03:33:29.491Z,99.99
2018-01-14T03:34:29.918Z,99.99
2018-01-14T03:35:29.492Z,99.99
2018-01-14T03:36:29.607Z,99.99
2018-01-14T03:37:29.757Z,99.99
2018-01-14T03:38:30.057Z,99.99
2018-01-14T03:39:30.032Z,99.99
2018-01-14T03:40:30.006Z,99.99
2018-01-14T03:41:30.097Z,99.99
2018-01-14T03:42:30.406Z,99.99
2018-01-14T03:43:30.472Z,99.99
2018-01-14T03:44:30.980Z,99.99
2018-01-14T03:45:31.262Z,99.99
2018-01-14T03:46:30.545Z,99.99
2018-01-14T03:47:30.551Z,99.99
2018-01-14T03:48:32.678Z,99.99
2018-01-14T03:49:32.307Z,99.99
2018-01-14T03:50:32.444Z,99.99
2018-01-14T03:51:32.574Z,99.99
2018-01-14T03:52:32.703Z,99.99
2018-01-14T03:53:31.833Z,99.99
2018-01-14T03:54:31.966Z,99.99
2018-01-14T03:55:31.783Z,99.99
2018-01-14T03:56:31.815Z,99.99
2018-01-14T03:57:32.646Z,99.99
2018-01-14T03:58:32.753Z,99.99
2018-01-14T03:59:32.759Z,99.99
2018-01-14T04:00:32.927Z,99.99
2018-01-14T04:01:32.657Z,99.99
2018-01-14T04:02:33.086Z,99.99
2018-01-14T04:03:33.910Z,99.99
2018-01-14T04:04:33.685Z,99.99
2018-01-14T04:05:33.595Z,99.99
2018-01-14T04:06:33.711Z,99.99
2018-01-14T04:07:33.584Z,99.99
2018-01-14T04:08:33.042Z,99.99
2018-01-14T04:09:33.148Z,99.99
2018-01-14T04:10:34.365Z,99.99
2018-01-14T04:11:33.923Z,99.99
2018-01-14T04:12:33.698Z,99.99
2018-01-14T04:13:33.906Z,99.99
2018-01-14T04:14:34.676Z,99.99
2018-01-14T04:15:34.572Z,99.99
2018-01-14T04:16:34.605Z,99.99
2018-01-14T04:17:34.897Z,99.99
2018-01-14T04:18:33.875Z,99.99
2018-01-14T04:19:35.126Z,99.99
2018-01-14T04:20:34.420Z,99.99
2018-01-14T04:21:34.296Z,99.99
2018-01-14T04:22:34.190Z,99.99
2018-01-14T04:23:33.943Z,99.99
2018-01-14T04:24:34.830Z,99.99
2018-01-14T04:25:35.085Z,99.99
2018-01-14T04:26:34.441Z,99.99
2018-01-14T04:27:35.141Z,99.99
2018-01-14T04:28:34.853Z,99.99
2018-01-14T04:29:35.409Z,99.99
2018-01-14T04:30:35.309Z,99.99
2018-01-14T04:31:35.349Z,99.99
2018-01-14T04:32:34.942Z,99.99
2018-01-14T04:33:35.562Z,99.99
2018-01-14T04:34:35.844Z,99.99
2018-01-14T04:35:35.894Z,99.99
2018-01-14T04:36:35.366Z,99.99
2018-01-14T04:37:35.333Z,99.99
2018-01-14T04:38:35.626Z,99.99
2018-01-14T04:39:35.937Z,99.99
2018-01-14T04:40:36.453Z,99.99
2018-01-14T04:41:36.325Z,99.99
2018-01-14T04:42:35.718Z,99.99
2018-01-14T04:43:35.729Z,99.99
2018-01-14T04:44:35.715Z,99.99
2018-01-14T04:45:35.721Z,99.99
2018-01-14T04:46:35.626Z,99.99
2018-01-14T04:47:35.778Z,99.99
2018-01-14T04:48:35.927Z,99.99
2018-01-14T04:49:36.304Z,99.99
2018-01-14T04:50:36.072Z,99.99
2018-01-14T04:51:36.374Z,99.99
2018-01-14T04:52:36.375Z,99.99
2018-01-14T04:53:36.119Z,99.99
2018-01-14T04:54:37.092Z,99.99
2018-01-14T04:55:36.741Z,99.99
2018-01-14T04:56:36.748Z,99.99
2018-01-14T04:57:37.338Z,99.99
2018-01-14T04:58:37.534Z,99.99
2018-01-14T04:59:37.788Z,99.99
2018-01-14T05:00:39.693Z,99.99
2018-01-14T05:01:39.864Z,99.99
2018-01-14T05:02:54.607Z,99.99
2018-01-14T05:03:50.970Z,99.99
2018-01-14T05:04:51.322Z,99.99
2018-01-14T05:05:50.339Z,99.99
2018-01-14T05:06:50.194Z,99.99
2018-01-14T05:07:50.923Z,99.99
2018-01-14T05:08:51.386Z,99.99
2018-01-14T05:09:51.565Z,99.99
2018-01-14T05:10:52.059Z,99.99
2018-01-14T05:11:51.672Z,99.99
2018-01-14T05:12:52.990Z,99.99
2018-01-14T05:13:51.856Z,99.99
2018-01-14T05:14:51.847Z,99.99
2018-01-14T05:15:52.121Z,99.99
2018-01-14T05:16:52.167Z,99.99
2018-01-14T05:17:52.177Z,99.99
2018-01-14T05:18:51.955Z,99.99
2018-01-14T05:19:52.596Z,99.99
2018-01-14T05:20:52.679Z,99.99
2018-01-14T05:21:53.096Z,99.99
2018-01-14T05:22:52.627Z,99.99
2018-01-14T05:23:52.461Z,99.99
2018-01-14T05:24:53.429Z,99.99
2018-01-14T05:25:53.857Z,99.99
2018-01-14T05:26:53.129Z,99.99
2018-01-14T05:27:52.867Z,99.99
2018-01-14T05:28:52.907Z,99.99
2018-01-14T05:29:52.616Z,99.99
2018-01-14T05:30:52.958Z,99.99
2018-01-14T05:31:53.329Z,99.99
2018-01-14T05:32:54.021Z,99.99
2018-01-14T05:33:54.637Z,99.99
2018-01-14T05:34:54.609Z,99.99
2018-01-14T05:35:54.963Z,99.99
2018-01-14T05:36:55.048Z,99.99
2018-01-14T05:37:54.563Z,99.99
2018-01-14T05:38:55.072Z,99.99
2018-01-14T05:39:54.259Z,99.99
2018-01-14T05:40:53.971Z,99.99
2018-01-14T05:41:54.568Z,99.99
2018-01-14T05:42:54.591Z,99.99
2018-01-14T05:43:54.626Z,99.99
2018-01-14T05:44:54.363Z,99.99
2018-01-14T05:45:54.726Z,99.99
2018-01-14T05:46:54.881Z,99.99
2018-01-14T05:47:55.634Z,99.99
2018-01-14T05:48:54.929Z,99.99
2018-01-14T05:49:54.790Z,99.99
2018-01-14T05:50:54.845Z,99.99
2018-01-14T05:51:55.221Z,99.99
2018-01-14T05:52:55.451Z,99.99
2018-01-14T05:53:55.701Z,99.99
2018-01-14T05:54:55.498Z,99.99
2018-01-14T05:55:55.606Z,99.99
2018-01-14T05:56:55.330Z,99.99
2018-01-14T05:57:55.413Z,99.99
2018-01-14T05:58:55.929Z,99.99
2018-01-14T05:59:56.238Z,99.99
2018-01-14T06:00:55.949Z,99.99
2018-01-14T06:01:56.242Z,99.99
2018-01-14T06:02:56.422Z,99.99
2018-01-14T06:03:56.283Z,99.99
2018-01-14T06:04:56.295Z,99.99
2018-01-14T06:05:56.039Z,99.99
2018-01-14T06:06:56.325Z,99.99
2018-01-14T06:07:56.771Z,99.99
2018-01-14T06:08:56.790Z,99.99
2018-01-14T06:09:56.528Z,99.99
2018-01-14T06:10:56.770Z,99.99
2018-01-14T06:11:57.417Z,99.99
2018-01-14T06:12:57.446Z,99.99
2018-01-14T06:13:57.182Z,99.99
2018-01-14T06:14:57.231Z,99.99
2018-01-14T06:15:58.135Z,99.99
2018-01-14T06:16:57.207Z,99.99
2018-01-14T06:17:57.191Z,99.99
2018-01-14T06:18:57.197Z,99.99
2018-01-14T06:19:58.204Z,99.99
2018-01-14T06:20:57.340Z,99.99
2018-01-14T06:21:57.559Z,99.99
2018-01-14T06:22:57.605Z,99.99
2018-01-14T06:23:57.403Z,99.99
2018-01-14T06:24:58.066Z,99.99
2018-01-14T06:25:57.735Z,99.99
2018-01-14T06:26:58.266Z,99.99
2018-01-14T06:27:57.861Z,99.99
2018-01-14T06:28:57.579Z,99.99
2018-01-14T06:29:57.339Z,99.99
2018-01-14T06:30:57.817Z,99.99
2018-01-14T06:31:57.712Z,99.99
2018-01-14T06:32:58.201Z,99.99
2018-01-14T06:33:58.472Z,99.99
2018-01-14T06:34:58.624Z,99.99
2018-01-14T06:35:58.596Z,99.99
2018-01-14T06:36:58.142Z,99.99
2018-01-14T06:37:58.438Z,99.99
2018-01-14T06:38:58.453Z,99.99
2018-01-14T06:39:58.912Z,99.99
2018-01-14T06:40:58.983Z,99.99
2018-01-14T06:41:59.331Z,99.99
2018-01-14T06:42:59.343Z,99.99
2018-01-14T06:43:59.377Z,99.99
2018-01-14T06:44:59.107Z,99.99
2018-01-14T06:45:59.298Z,99.99
2018-01-14T06:46:59.730Z,99.99
2018-01-14T06:47:59.654Z,99.99
2018-01-14T06:48:59.687Z,99.99
2018-01-14T06:49:59.740Z,99.99
2018-01-14T06:50:59.950Z,99.99
2018-01-14T06:52:00.443Z,99.99
2018-01-14T06:53:00.056Z,99.99
2018-01-14T06:54:00.631Z,99.99
2018-01-14T06:55:01.076Z,99.99
2018-01-14T06:56:00.694Z,99.99
2018-01-14T06:57:00.673Z,99.99
2018-01-14T06:58:01.251Z,99.99
2018-01-14T06:59:01.631Z,99.99
2018-01-14T07:00:00.719Z,99.99
2018-01-14T07:01:00.783Z,99.99
2018-01-14T07:02:01.824Z,99.99
2018-01-14T07:03:01.362Z,99.99
2018-01-14T07:04:01.995Z,99.99
2018-01-14T07:05:01.833Z,99.99
2018-01-14T07:06:01.939Z,99.99
2018-01-14T07:07:02.145Z,99.99
2018-01-14T07:08:02.768Z,99.99
2018-01-14T07:09:02.663Z,99.99
2018-01-14T07:10:02.636Z,99.99
2018-01-14T07:11:03.036Z,99.99
2018-01-14T07:12:02.690Z,99.99
2018-01-14T07:13:02.711Z,99.99
2018-01-14T07:14:02.713Z,99.99
2018-01-14T07:15:02.837Z,99.99
2018-01-14T07:16:02.729Z,99.99
2018-01-14T07:17:02.491Z,99.99
2018-01-14T07:18:02.912Z,99.99
2018-01-14T07:19:02.972Z,99.99
2018-01-14T07:20:03.010Z,99.99
2018-01-14T07:21:03.530Z,99.99
2018-01-14T07:22:03.693Z,99.99
2018-01-14T07:23:03.840Z,99.99
2018-01-14T07:24:03.854Z,99.99
2018-01-14T07:25:04.139Z,99.99
2018-01-14T07:26:03.352Z,99.99
2018-01-14T07:27:03.730Z,99.99
2018-01-14T07:28:03.687Z,99.99
2018-01-14T07:29:04.154Z,99.99
2018-01-14T07:30:04.423Z,99.99
2018-01-14T07:31:04.664Z,99.99
2018-01-14T07:32:04.936Z,99.99
2018-01-14T07:33:04.341Z,99.99
2018-01-14T07:34:05.023Z,99.99
2018-01-14T07:35:05.044Z,99.99
2018-01-14T07:36:05.154Z,99.99
2018-01-14T07:37:05.326Z,99.99
2018-01-14T07:38:04.826Z,99.99
2018-01-14T07:39:05.108Z,99.99
2018-01-14T07:40:05.445Z,99.99
2018-01-14T07:41:06.070Z,99.99
2018-01-14T07:42:06.122Z,99.99
2018-01-14T07:43:05.168Z,99.99
2018-01-14T07:44:20.048Z,99.99
2018-01-14T07:45:05.212Z,99.99
2018-01-14T07:46:05.372Z,99.99
2018-01-14T07:47:05.377Z,99.99
2018-01-14T07:48:05.304Z,99.99
2018-01-14T07:49:05.913Z,99.99
2018-01-14T07:50:05.298Z,99.99
2018-01-14T07:51:05.451Z,99.99
2018-01-14T07:52:05.486Z,99.99
2018-01-14T07:53:05.437Z,99.99
2018-01-14T07:54:06.212Z,99.99
2018-01-14T07:55:05.983Z,99.99
2018-01-14T07:56:05.986Z,99.99
2018-01-14T07:57:06.418Z,99.99
2018-01-14T07:58:07.362Z,99.99
2018-01-14T07:59:07.078Z,99.99
2018-01-14T08:00:22.130Z,99.99
2018-01-14T08:01:22.286Z,99.99
2018-01-14T08:02:22.266Z,99.99
2018-01-14T08:03:22.615Z,99.99
2018-01-14T08:04:22.923Z,99.99
2018-01-14T08:05:22.698Z,99.99
2018-01-14T08:06:22.928Z,99.99
2018-01-14T08:07:22.708Z,99.99
2018-01-14T08:08:22.721Z,99.99
2018-01-14T08:09:23.284Z,99.99
2018-01-14T08:10:23.324Z,99.99
2018-01-14T08:11:23.887Z,99.99
2018-01-14T08:12:23.769Z,99.99
2018-01-14T08:13:23.451Z,99.99
2018-01-14T08:14:23.985Z,99.99
2018-01-14T08:15:23.511Z,99.99
2018-01-14T08:16:22.832Z,99.99
2018-01-14T08:17:23.168Z,99.99
2018-01-14T08:18:23.492Z,99.99
2018-01-14T08:19:23.794Z,99.99
2018-01-14T08:20:24.393Z,99.99
2018-01-14T08:21:24.819Z,99.99
2018-01-14T08:22:23.998Z,99.99
2018-01-14T08:23:23.934Z,99.99
2018-01-14T08:24:23.928Z,99.99
2018-01-14T08:25:24.855Z,99.99
2018-01-14T08:26:25.120Z,99.99
2018-01-14T08:27:24.910Z,99.99
2018-01-14T08:28:25.152Z,99.99
2018-01-14T08:29:24.943Z,99.99
2018-01-14T08:30:24.992Z,99.99
2018-01-14T08:31:25.194Z,99.99
2018-01-14T08:32:25.111Z,99.99
2018-01-14T08:33:25.156Z,99.99
2018-01-14T08:34:25.132Z,99.99
2018-01-14T08:35:25.178Z,99.99
2018-01-14T08:36:25.293Z,99.99
2018-01-14T08:37:25.482Z,99.99
2018-01-14T08:38:25.320Z,99.99
2018-01-14T08:39:25.620Z,99.99
2018-01-14T08:40:25.378Z,99.99
2018-01-14T08:41:26.461Z,99.99
2018-01-14T08:42:25.962Z,99.99
2018-01-14T08:43:26.006Z,99.99
2018-01-14T08:44:26.263Z,99.99
2018-01-14T08:45:26.431Z,99.99
2018-01-14T08:46:26.472Z,99.99
2018-01-14T08:47:26.610Z,99.99
2018-01-14T08:48:26.695Z,99.99
2018-01-14T08:49:26.750Z,99.99
2018-01-14T08:50:27.323Z,99.99
2018-01-14T08:51:27.002Z,99.99
2018-01-14T08:52:27.259Z,99.99
2018-01-14T08:53:27.080Z,99.99
2018-01-14T08:54:27.140Z,99.99
2018-01-14T08:55:27.243Z,99.99
2018-01-14T08:56:27.092Z,99.99
2018-01-14T08:57:26.986Z,99.99
2018-01-14T08:58:27.363Z,99.99
2018-01-14T08:59:27.240Z,99.99
2018-01-14T09:00:27.578Z,99.99
2018-01-14T09:01:27.626Z,99.99
2018-01-14T09:02:27.657Z,99.99
2018-01-14T09:03:27.898Z,99.99
2018-01-14T09:04:27.669Z,99.99
2018-01-14T09:05:27.921Z,99.99
2018-01-14T09:06:27.862Z,99.99
2018-01-14T09:07:27.834Z,99.99
2018-01-14T09:08:28.172Z,99.99
2018-01-14T09:09:42.843Z,99.99
2018-01-14T09:10:42.603Z,99.99
2018-01-14T09:11:42.951Z,99.99
2018-01-14T09:12:43.107Z,99.99
2018-01-14T09:13:43.258Z,98.77
2018-01-14T09:14:43.658Z,98.06
2018-01-14T09:15:43.593Z,94.7
2018-01-14T09:16:43.597Z,93.46
2018-01-14T09:17:43.752Z,91.76
2018-01-14T09:18:43.734Z,91.86
2018-01-14T09:19:44.167Z,91
2018-01-14T09:20:44.379Z,90.44
2018-01-14T09:21:44.647Z,90.44
2018-01-14T09:22:44.731Z,91.19
2018-01-14T09:23:44.721Z,91.86
2018-01-14T09:24:44.437Z,91.1
2018-01-14T09:25:44.541Z,90.72
2018-01-14T09:26:45.047Z,89.53
2018-01-14T09:27:45.358Z,89.63
2018-01-14T09:28:45.427Z,88.78
2018-01-14T09:29:45.439Z,88.44
2018-01-14T09:30:45.519Z,88.25
2018-01-14T09:31:45.791Z,87.4
2018-01-14T09:32:45.533Z,86.79
2018-01-14T09:33:45.549Z,87.02
2018-01-14T09:34:45.808Z,86.83
2018-01-14T09:35:46.141Z,86.79
2018-01-14T09:36:45.658Z,86.93
2018-01-14T09:37:45.687Z,86.69
2018-01-14T09:38:45.719Z,86.79
2018-01-14T09:39:45.710Z,86.41
2018-01-14T09:40:45.842Z,86.12
2018-01-14T09:41:46.041Z,86.41
2018-01-14T09:42:45.745Z,87.16
2018-01-14T09:43:45.512Z,87.3
2018-01-14T09:44:46.400Z,86.07
2018-01-14T09:45:46.171Z,86.35
2018-01-14T09:46:46.548Z,86.07
2018-01-14T09:47:46.551Z,85.6
2018-01-14T09:48:46.599Z,85.13
2018-01-14T09:49:46.578Z,85.6
2018-01-14T09:50:46.299Z,86.22
2018-01-14T09:51:47.126Z,86.69
2018-01-14T09:53:46.925Z,87.26
2018-01-14T09:54:46.917Z,86.93
2018-01-14T09:55:47.162Z,85.13
2018-01-14T09:56:47.511Z,84.46
2018-01-14T09:57:47.459Z,83.98
2018-01-14T09:58:47.163Z,83.84
2018-01-14T09:59:47.140Z,83.98
2018-01-14T10:00:47.690Z,85.22
2018-01-14T10:01:47.592Z,85.5
2018-01-14T10:02:47.385Z,85.03
2018-01-14T10:04:01.682Z,85.97
2018-01-14T10:04:47.117Z,86.74
2018-01-14T10:05:47.251Z,86.07
2018-01-14T10:06:47.756Z,85.6
2018-01-14T10:07:47.555Z,86.16
2018-01-14T10:08:47.728Z,86.07
2018-01-14T10:09:47.447Z,85.78
2018-01-14T10:10:48.062Z,85.41
2018-01-14T10:11:47.774Z,85.31
2018-01-14T10:12:48.069Z,85.6
2018-01-14T10:13:48.531Z,85.5
2018-01-14T10:14:48.765Z,85.69
2018-01-14T10:15:48.629Z,85.5
2018-01-14T10:16:48.686Z,84.94
2018-01-14T10:17:48.541Z,84.69
2018-01-14T10:18:48.357Z,84.31
2018-01-14T10:19:48.658Z,83.74
2018-01-14T10:20:49.340Z,83.61
2018-01-14T10:21:49.171Z,83.32
2018-01-14T10:22:49.183Z,82.47
2018-01-14T10:23:48.944Z,83.36
2018-01-14T10:24:49.417Z,83.65
2018-01-14T10:25:49.411Z,83.46
2018-01-14T10:26:49.680Z,82.89
2018-01-14T10:27:50.213Z,82.18
2018-01-14T10:28:50.084Z,82.56
2018-01-14T10:29:50.146Z,81.75
2018-01-14T10:30:50.204Z,80.8
2018-01-14T10:31:49.908Z,80.94
2018-01-14T10:32:50.312Z,80.03
2018-01-14T10:33:50.856Z,78.42
2018-01-14T10:34:51.130Z,77.03
2018-01-14T10:35:50.589Z,75.6
2018-01-14T10:36:50.948Z,76.08
2018-01-14T10:37:51.004Z,76.18
2018-01-14T10:38:50.272Z,76.08
2018-01-14T10:39:50.463Z,76.8
2018-01-14T10:40:50.438Z,76.95
2018-01-14T10:41:50.768Z,78.81
2018-01-14T10:42:50.825Z,80.67
2018-01-14T10:43:50.824Z,82.47
2018-01-14T10:44:50.820Z,82.66
2018-01-14T10:45:51.260Z,83.13
2018-01-14T10:46:51.275Z,83.23
2018-01-14T10:47:51.387Z,83.7
2018-01-14T10:48:51.423Z,84.51
2018-01-14T10:49:51.910Z,84.27
2018-01-14T10:50:51.924Z,83.74
2018-01-14T10:51:51.651Z,82.51
2018-01-14T10:52:51.988Z,81.18
2018-01-14T10:53:51.887Z,82.32
2018-01-14T10:54:52.284Z,81.09
2018-01-14T10:55:52.345Z,80.33
2018-01-14T10:56:52.378Z,80.18
2018-01-14T10:57:52.457Z,79.04
2018-01-14T10:58:52.487Z,77.18
2018-01-14T10:59:52.954Z,76.9
2018-01-14T11:00:52.205Z,77.18
2018-01-14T11:01:52.943Z,77.9
2018-01-14T11:02:52.649Z,77.66
2018-01-14T11:03:52.967Z,78.09
2018-01-14T11:04:52.968Z,79
2018-01-14T11:05:53.473Z,80.04
2018-01-14T11:06:53.188Z,80.43
2018-01-14T11:07:54.256Z,80.71
2018-01-14T11:08:53.843Z,80.37
2018-01-14T11:09:54.177Z,80.18
2018-01-14T11:10:54.745Z,79.8
2018-01-14T11:11:54.285Z,78.19
2018-01-14T11:12:53.750Z,77.71
2018-01-14T11:13:53.778Z,77.66
2018-01-14T11:14:54.339Z,76.8
2018-01-14T11:15:53.920Z,76.8
2018-01-14T11:16:53.924Z,75.85
2018-01-14T11:17:53.603Z,75.95
2018-01-14T11:18:54.007Z,76.29
2018-01-14T11:19:54.523Z,76.57
2018-01-14T11:20:54.499Z,76.86
2018-01-14T11:21:55.169Z,77.05
2018-01-14T11:22:54.276Z,76.86
2018-01-14T11:23:54.704Z,76.23
2018-01-14T11:24:55.144Z,75.57
2018-01-14T11:25:55.141Z,75.76
2018-01-14T11:26:54.850Z,76.42
2018-01-14T11:27:55.151Z,76.14
2018-01-14T11:28:54.910Z,75.7
2018-01-14T11:29:55.211Z,75.13
2018-01-14T11:30:55.263Z,74.66
2018-01-14T11:31:55.276Z,74.6
2018-01-14T11:32:54.991Z,74.37
2018-01-14T11:33:55.305Z,73.99
2018-01-14T11:34:55.095Z,74.62
2018-01-14T11:35:55.072Z,74.52
2018-01-14T11:36:55.104Z,75.09
2018-01-14T11:37:55.492Z,75
2018-01-14T11:38:55.798Z,75.67
2018-01-14T11:39:57.631Z,76.23
2018-01-14T11:40:57.301Z,76.61
2018-01-14T11:41:56.908Z,76.23
2018-01-14T11:42:56.943Z,75.85
2018-01-14T11:43:57.276Z,75.62
2018-01-14T11:44:57.834Z,76.01
2018-01-14T11:45:57.052Z,76.01
2018-01-14T11:46:56.927Z,77.33
2018-01-14T11:47:57.071Z,77.77
2018-01-14T11:48:57.086Z,78.24
2018-01-14T11:49:58.772Z,77.81
2018-01-14T11:50:58.737Z,77.52
2018-01-14T11:51:58.278Z,77.86
2018-01-14T11:52:57.679Z,78.05
2018-01-14T11:53:57.967Z,78.72
2018-01-14T11:54:57.760Z,79.1
2018-01-14T11:55:58.057Z,79.1
2018-01-14T11:56:58.129Z,79.19
2018-01-14T11:57:58.380Z,80.19
2018-01-14T11:58:58.297Z,80.76
2018-01-14T11:59:58.296Z,82.47
2018-01-14T12:00:58.423Z,83.47
2018-01-14T12:01:58.697Z,84.7
2018-01-14T12:02:59.328Z,84.7
2018-01-14T12:03:59.950Z,84.7
2018-01-14T12:04:59.887Z,83.85
2018-01-14T12:05:59.550Z,83.75
2018-01-14T12:06:59.369Z,84.23
2018-01-14T12:07:59.409Z,83.89
2018-01-14T12:08:59.418Z,83.13
2018-01-14T12:09:59.624Z,83.75
2018-01-14T12:10:59.971Z,84.61
2018-01-14T12:12:00.139Z,84.89
2018-01-14T12:12:59.521Z,85.08
2018-01-14T12:13:59.827Z,85.36
2018-01-14T12:15:00.065Z,85.93
2018-01-14T12:16:00.112Z,86.08
2018-01-14T12:16:59.954Z,87.4
2018-01-14T12:17:59.154Z,88.49
2018-01-14T12:19:00.292Z,89.54
2018-01-14T12:19:59.812Z,90.48
2018-01-14T12:21:00.481Z,91.67
2018-01-14T12:22:01.108Z,91.86
2018-01-14T12:23:00.715Z,92.43
2018-01-14T12:24:00.527Z,92.8
2018-01-14T12:25:00.966Z,93.66
2018-01-14T12:26:02.081Z,93.94
2018-01-14T12:27:01.610Z,94.13
2018-01-14T12:28:01.388Z,94.32
2018-01-14T12:29:02.125Z,93.66
2018-01-14T12:30:01.630Z,93.66
2018-01-14T12:31:01.851Z,93.28
2018-01-14T12:32:02.237Z,93.47
2018-01-14T12:33:02.191Z,94.32
2018-01-14T12:34:02.677Z,94.32
2018-01-14T12:35:02.527Z,94.6
2018-01-14T12:36:02.546Z,94.7
2018-01-14T12:37:02.545Z,95.36
2018-01-14T12:38:02.354Z,95.45
2018-01-14T12:39:02.600Z,95.07
2018-01-14T12:40:03.363Z,94.89
2018-01-14T12:41:03.061Z,95.26
2018-01-14T12:42:03.020Z,95.21
2018-01-14T12:43:03.767Z,95.69
2018-01-14T12:44:03.910Z,95.69
2018-01-14T12:45:04.343Z,95.78
2018-01-14T12:46:04.312Z,96.26
2018-01-14T12:47:04.595Z,95.55
2018-01-14T12:48:04.364Z,96.26
2018-01-14T12:49:04.697Z,95.69
2018-01-14T12:50:04.725Z,95.4
2018-01-14T12:51:04.610Z,95.83
2018-01-14T12:52:05.036Z,95.4
2018-01-14T12:53:04.546Z,95.55
2018-01-14T12:54:04.539Z,95.45
2018-01-14T12:55:05.409Z,95.36
2018-01-14T12:56:05.281Z,94.98
2018-01-14T12:57:05.491Z,95.17
2018-01-14T12:58:05.840Z,95.12
2018-01-14T12:59:05.831Z,95.59